sensor_id;sensor_type;location;lat;lon;timestamp;P1;durP1;ratioP1;P2;durP2;ratioP2
64174;SDS011;50469;50.438;-119.202;2023-08-24T00:00:40;27.85;;;13.98;;
64174;SDS011;50469;50.438;-119.202;2023-08-24T00:03:08;30.27;;;14.57;;
64174;SDS011;50469;50.438;-119.202;2023-08-24T00:05:37;24.60;;;13.85;;
64174;SDS011;50469;50.438;-119.202;2023-08-24T00:08:06;28.83;;;14.43;;
64174;SDS011;50469;50.438;-119.202;2023-08-24T00:10:35;31.77;;;14.15;;
64174;SDS011;50469;50.438;-119.202;2023-08-24T00:13:04;22.60;;;14.77;;
64174;SDS011;50469;50.438;-119.202;2023-08-24T00:15:32;27.15;;;14.73;;
64174;SDS011;50469;50.438;-119.202;2023-08-24T00:18:01;33.15;;;14.13;;
64174;SDS011;50469;50.438;-119.202;2023-08-24T00:20:32;26.02;;;13.98;;
64174;SDS011;50469;50.438;-119.202;2023-08-24T00:23:01;28.48;;;14.50;;
64174;SDS011;50469;50.438;-119.202;2023-08-24T00:25:29;22.83;;;13.85;;
64174;SDS011;50469;50.438;-119.202;2023-08-24T00:27:58;36.50;;;14.52;;
64174;SDS011;50469;50.438;-119.202;2023-08-24T00:30:26;22.42;;;13.63;;
64174;SDS011;50469;50.438;-119.202;2023-08-24T00:32:54;25.75;;;14.32;;
64174;SDS011;50469;50.438;-119.202;2023-08-24T00:35:22;26.95;;;14.65;;
64174;SDS011;50469;50.438;-119.202;2023-08-24T00:37:50;25.73;;;15.02;;
64174;SDS011;50469;50.438;-119.202;2023-08-24T00:40:18;20.55;;;13.52;;
64174;SDS011;50469;50.438;-119.202;2023-08-24T00:42:47;27.55;;;14.52;;
64174;SDS011;50469;50.438;-119.202;2023-08-24T00:45:15;23.33;;;13.98;;
64174;SDS011;50469;50.438;-119.202;2023-08-24T00:47:44;25.90;;;15.10;;
64174;SDS011;50469;50.438;-119.202;2023-08-24T00:50:16;25.08;;;15.32;;
64174;SDS011;50469;50.438;-119.202;2023-08-24T00:52:45;26.70;;;16.35;;
64174;SDS011;50469;50.438;-119.202;2023-08-24T00:55:14;32.30;;;15.23;;
64174;SDS011;50469;50.438;-119.202;2023-08-24T00:57:44;25.83;;;16.65;;
64174;SDS011;50469;50.438;-119.202;2023-08-24T01:00:13;27.45;;;17.23;;
64174;SDS011;50469;50.438;-119.202;2023-08-24T01:02:41;33.85;;;16.80;;
64174;SDS011;50469;50.438;-119.202;2023-08-24T01:05:10;25.52;;;14.65;;
64174;SDS011;50469;50.438;-119.202;2023-08-24T01:07:39;31.65;;;16.05;;
64174;SDS011;50469;50.438;-119.202;2023-08-24T01:10:08;30.15;;;15.82;;
64174;SDS011;50469;50.438;-119.202;2023-08-24T01:15:42;29.40;;;15.10;;
64174;SDS011;50469;50.438;-119.202;2023-08-24T01:18:30;29.10;;;16.00;;
64174;SDS011;50469;50.438;-119.202;2023-08-24T01:21:00;27.90;;;14.60;;
64174;SDS011;50469;50.438;-119.202;2023-08-24T01:26:29;27.20;;;13.48;;
64174;SDS011;50469;50.438;-119.202;2023-08-24T01:28:58;25.95;;;15.80;;
64174;SDS011;50469;50.438;-119.202;2023-08-24T01:31:27;27.67;;;14.55;;
64174;SDS011;50469;50.438;-119.202;2023-08-24T01:33:55;30.63;;;15.15;;
64174;SDS011;50469;50.438;-119.202;2023-08-24T01:36:23;24.92;;;15.25;;
64174;SDS011;50469;50.438;-119.202;2023-08-24T01:39:14;26.27;;;16.30;;
64174;SDS011;50469;50.438;-119.202;2023-08-24T01:41:51;30.90;;;15.35;;
64174;SDS011;50469;50.438;-119.202;2023-08-24T01:44:22;28.23;;;14.20;;
64174;SDS011;50469;50.438;-119.202;2023-08-24T01:46:52;30.98;;;16.00;;
64174;SDS011;50469;50.438;-119.202;2023-08-24T01:49:23;23.85;;;14.43;;
64174;SDS011;50469;50.438;-119.202;2023-08-24T01:51:52;24.70;;;12.88;;
64174;SDS011;50469;50.438;-119.202;2023-08-24T01:54:21;24.55;;;13.20;;
64174;SDS011;50469;50.438;-119.202;2023-08-24T01:56:49;25.92;;;14.05;;
64174;SDS011;50469;50.438;-119.202;2023-08-24T01:59:17;31.27;;;13.82;;
64174;SDS011;50469;50.438;-119.202;2023-08-24T02:01:45;26.88;;;14.52;;
64174;SDS011;50469;50.438;-119.202;2023-08-24T02:04:14;27.85;;;14.85;;
64174;SDS011;50469;50.438;-119.202;2023-08-24T02:06:42;26.73;;;14.05;;
64174;SDS011;50469;50.438;-119.202;2023-08-24T02:09:10;25.85;;;13.98;;
64174;SDS011;50469;50.438;-119.202;2023-08-24T02:11:38;28.67;;;14.98;;
64174;SDS011;50469;50.438;-119.202;2023-08-24T02:14:06;31.13;;;16.35;;
64174;SDS011;50469;50.438;-119.202;2023-08-24T02:16:35;31.00;;;15.70;;
64174;SDS011;50469;50.438;-119.202;2023-08-24T02:19:04;27.17;;;14.88;;
64174;SDS011;50469;50.438;-119.202;2023-08-24T02:21:34;32.00;;;16.17;;
64174;SDS011;50469;50.438;-119.202;2023-08-24T02:24:04;34.67;;;17.48;;
64174;SDS011;50469;50.438;-119.202;2023-08-24T02:26:37;28.00;;;14.85;;
64174;SDS011;50469;50.438;-119.202;2023-08-24T02:29:05;29.92;;;15.13;;
64174;SDS011;50469;50.438;-119.202;2023-08-24T02:31:34;26.45;;;14.32;;
64174;SDS011;50469;50.438;-119.202;2023-08-24T02:34:03;35.85;;;14.23;;
64174;SDS011;50469;50.438;-119.202;2023-08-24T02:36:34;28.20;;;13.77;;
64174;SDS011;50469;50.438;-119.202;2023-08-24T02:39:02;26.52;;;14.85;;
64174;SDS011;50469;50.438;-119.202;2023-08-24T02:41:30;30.92;;;16.10;;
64174;SDS011;50469;50.438;-119.202;2023-08-24T02:43:58;27.05;;;15.07;;
64174;SDS011;50469;50.438;-119.202;2023-08-24T02:46:31;33.10;;;15.15;;
64174;SDS011;50469;50.438;-119.202;2023-08-24T02:49:02;31.60;;;16.60;;
64174;SDS011;50469;50.438;-119.202;2023-08-24T02:51:30;29.30;;;15.40;;
64174;SDS011;50469;50.438;-119.202;2023-08-24T02:53:58;34.17;;;15.35;;
64174;SDS011;50469;50.438;-119.202;2023-08-24T02:56:27;30.10;;;14.90;;
64174;SDS011;50469;50.438;-119.202;2023-08-24T02:58:55;36.40;;;15.80;;
64174;SDS011;50469;50.438;-119.202;2023-08-24T03:01:23;29.88;;;15.52;;
64174;SDS011;50469;50.438;-119.202;2023-08-24T03:03:52;28.05;;;14.95;;
64174;SDS011;50469;50.438;-119.202;2023-08-24T03:06:21;27.83;;;15.75;;
64174;SDS011;50469;50.438;-119.202;2023-08-24T03:08:49;24.58;;;14.63;;
64174;SDS011;50469;50.438;-119.202;2023-08-24T03:11:17;28.92;;;16.00;;
64174;SDS011;50469;50.438;-119.202;2023-08-24T03:13:48;33.17;;;17.23;;
64174;SDS011;50469;50.438;-119.202;2023-08-24T03:16:17;26.83;;;15.55;;
64174;SDS011;50469;50.438;-119.202;2023-08-24T03:18:45;33.15;;;16.70;;
64174;SDS011;50469;50.438;-119.202;2023-08-24T03:21:13;28.15;;;16.20;;
64174;SDS011;50469;50.438;-119.202;2023-08-24T03:23:42;29.95;;;16.92;;
64174;SDS011;50469;50.438;-119.202;2023-08-24T03:26:10;30.00;;;15.85;;
64174;SDS011;50469;50.438;-119.202;2023-08-24T03:28:39;30.90;;;16.48;;
64174;SDS011;50469;50.438;-119.202;2023-08-24T03:31:07;34.35;;;17.25;;
64174;SDS011;50469;50.438;-119.202;2023-08-24T03:33:35;30.25;;;16.50;;
64174;SDS011;50469;50.438;-119.202;2023-08-24T03:36:03;27.38;;;16.55;;
64174;SDS011;50469;50.438;-119.202;2023-08-24T03:38:32;31.50;;;16.52;;
64174;SDS011;50469;50.438;-119.202;2023-08-24T03:41:01;31.83;;;16.38;;
64174;SDS011;50469;50.438;-119.202;2023-08-24T03:43:33;28.70;;;14.63;;
64174;SDS011;50469;50.438;-119.202;2023-08-24T03:46:02;27.63;;;16.30;;
64174;SDS011;50469;50.438;-119.202;2023-08-24T03:48:32;29.52;;;18.27;;
64174;SDS011;50469;50.438;-119.202;2023-08-24T03:51:00;29.58;;;15.70;;
64174;SDS011;50469;50.438;-119.202;2023-08-24T03:53:29;26.60;;;15.27;;
64174;SDS011;50469;50.438;-119.202;2023-08-24T03:55:57;31.83;;;16.30;;
64174;SDS011;50469;50.438;-119.202;2023-08-24T03:58:25;29.23;;;16.65;;
64174;SDS011;50469;50.438;-119.202;2023-08-24T04:00:53;34.42;;;15.98;;
64174;SDS011;50469;50.438;-119.202;2023-08-24T04:03:21;28.02;;;17.20;;
64174;SDS011;50469;50.438;-119.202;2023-08-24T04:05:50;28.15;;;15.88;;
64174;SDS011;50469;50.438;-119.202;2023-08-24T04:08:18;34.15;;;17.38;;
64174;SDS011;50469;50.438;-119.202;2023-08-24T04:10:46;31.75;;;14.40;;
64174;SDS011;50469;50.438;-119.202;2023-08-24T04:13:14;33.58;;;17.20;;
64174;SDS011;50469;50.438;-119.202;2023-08-24T04:15:42;32.17;;;15.95;;
64174;SDS011;50469;50.438;-119.202;2023-08-24T04:18:10;29.45;;;14.40;;
64174;SDS011;50469;50.438;-119.202;2023-08-24T04:20:39;31.67;;;15.38;;
64174;SDS011;50469;50.438;-119.202;2023-08-24T04:23:07;29.65;;;14.93;;
64174;SDS011;50469;50.438;-119.202;2023-08-24T04:25:38;30.95;;;16.17;;
64174;SDS011;50469;50.438;-119.202;2023-08-24T04:28:07;29.27;;;16.80;;
64174;SDS011;50469;50.438;-119.202;2023-08-24T04:30:35;29.90;;;16.60;;
64174;SDS011;50469;50.438;-119.202;2023-08-24T04:33:04;34.22;;;15.18;;
64174;SDS011;50469;50.438;-119.202;2023-08-24T04:35:35;25.35;;;14.48;;
64174;SDS011;50469;50.438;-119.202;2023-08-24T04:38:04;25.77;;;14.50;;
64174;SDS011;50469;50.438;-119.202;2023-08-24T04:40:44;34.53;;;16.20;;
64174;SDS011;50469;50.438;-119.202;2023-08-24T04:43:14;35.15;;;15.27;;
64174;SDS011;50469;50.438;-119.202;2023-08-24T04:45:45;26.60;;;14.98;;
64174;SDS011;50469;50.438;-119.202;2023-08-24T04:48:22;31.92;;;16.50;;
64174;SDS011;50469;50.438;-119.202;2023-08-24T04:50:51;31.88;;;15.43;;
64174;SDS011;50469;50.438;-119.202;2023-08-24T04:53:20;29.83;;;15.90;;
64174;SDS011;50469;50.438;-119.202;2023-08-24T04:55:48;28.80;;;14.82;;
64174;SDS011;50469;50.438;-119.202;2023-08-24T04:58:19;26.08;;;14.30;;
64174;SDS011;50469;50.438;-119.202;2023-08-24T05:00:48;27.45;;;15.40;;
64174;SDS011;50469;50.438;-119.202;2023-08-24T05:03:16;25.52;;;14.80;;
64174;SDS011;50469;50.438;-119.202;2023-08-24T05:05:47;28.15;;;14.77;;
64174;SDS011;50469;50.438;-119.202;2023-08-24T05:08:15;27.20;;;14.95;;
64174;SDS011;50469;50.438;-119.202;2023-08-24T05:10:43;34.55;;;14.32;;
64174;SDS011;50469;50.438;-119.202;2023-08-24T05:13:11;25.50;;;15.77;;
64174;SDS011;50469;50.438;-119.202;2023-08-24T05:15:40;28.73;;;14.27;;
64174;SDS011;50469;50.438;-119.202;2023-08-24T05:18:08;23.85;;;14.48;;
64174;SDS011;50469;50.438;-119.202;2023-08-24T05:20:36;34.15;;;14.95;;
64174;SDS011;50469;50.438;-119.202;2023-08-24T05:23:04;22.50;;;13.68;;
64174;SDS011;50469;50.438;-119.202;2023-08-24T05:25:32;32.20;;;16.00;;
64174;SDS011;50469;50.438;-119.202;2023-08-24T05:28:00;33.30;;;15.75;;
64174;SDS011;50469;50.438;-119.202;2023-08-24T05:30:28;33.72;;;16.83;;
64174;SDS011;50469;50.438;-119.202;2023-08-24T05:32:57;24.13;;;14.38;;
64174;SDS011;50469;50.438;-119.202;2023-08-24T05:35:25;28.40;;;15.85;;
64174;SDS011;50469;50.438;-119.202;2023-08-24T05:37:53;27.20;;;14.68;;
64174;SDS011;50469;50.438;-119.202;2023-08-24T05:40:21;25.80;;;14.88;;
64174;SDS011;50469;50.438;-119.202;2023-08-24T05:42:50;37.80;;;15.32;;
64174;SDS011;50469;50.438;-119.202;2023-08-24T05:45:18;31.30;;;15.75;;
64174;SDS011;50469;50.438;-119.202;2023-08-24T05:47:48;29.15;;;17.02;;
64174;SDS011;50469;50.438;-119.202;2023-08-24T05:50:17;29.20;;;16.48;;
64174;SDS011;50469;50.438;-119.202;2023-08-24T05:52:45;27.85;;;15.85;;
64174;SDS011;50469;50.438;-119.202;2023-08-24T05:55:14;31.45;;;17.13;;
64174;SDS011;50469;50.438;-119.202;2023-08-24T05:57:42;29.80;;;14.98;;
64174;SDS011;50469;50.438;-119.202;2023-08-24T06:00:11;26.77;;;16.63;;
64174;SDS011;50469;50.438;-119.202;2023-08-24T06:02:40;28.50;;;17.05;;
64174;SDS011;50469;50.438;-119.202;2023-08-24T06:05:08;29.45;;;18.08;;
64174;SDS011;50469;50.438;-119.202;2023-08-24T06:07:36;30.00;;;16.98;;
64174;SDS011;50469;50.438;-119.202;2023-08-24T06:10:05;36.22;;;17.65;;
64174;SDS011;50469;50.438;-119.202;2023-08-24T06:12:33;32.35;;;17.55;;
64174;SDS011;50469;50.438;-119.202;2023-08-24T06:15:04;28.55;;;15.77;;
64174;SDS011;50469;50.438;-119.202;2023-08-24T06:17:33;26.45;;;16.40;;
64174;SDS011;50469;50.438;-119.202;2023-08-24T06:20:04;33.88;;;17.48;;
64174;SDS011;50469;50.438;-119.202;2023-08-24T06:22:33;34.05;;;15.52;;
64174;SDS011;50469;50.438;-119.202;2023-08-24T06:25:01;30.83;;;16.33;;
64174;SDS011;50469;50.438;-119.202;2023-08-24T06:27:29;29.02;;;16.95;;
64174;SDS011;50469;50.438;-119.202;2023-08-24T06:29:57;26.15;;;14.55;;
64174;SDS011;50469;50.438;-119.202;2023-08-24T06:32:25;24.88;;;14.00;;
64174;SDS011;50469;50.438;-119.202;2023-08-24T06:34:54;30.77;;;16.17;;
64174;SDS011;50469;50.438;-119.202;2023-08-24T06:37:22;29.85;;;16.42;;
64174;SDS011;50469;50.438;-119.202;2023-08-24T06:39:50;27.00;;;15.48;;
64174;SDS011;50469;50.438;-119.202;2023-08-24T06:42:18;30.35;;;18.00;;
64174;SDS011;50469;50.438;-119.202;2023-08-24T06:44:48;30.48;;;14.57;;
64174;SDS011;50469;50.438;-119.202;2023-08-24T06:47:16;38.25;;;13.98;;
64174;SDS011;50469;50.438;-119.202;2023-08-24T06:49:44;39.95;;;17.08;;
64174;SDS011;50469;50.438;-119.202;2023-08-24T06:52:12;28.83;;;15.75;;
64174;SDS011;50469;50.438;-119.202;2023-08-24T06:54:40;26.98;;;15.15;;
64174;SDS011;50469;50.438;-119.202;2023-08-24T06:57:10;26.48;;;8.68;;
64174;SDS011;50469;50.438;-119.202;2023-08-24T06:59:38;27.10;;;10.88;;
64174;SDS011;50469;50.438;-119.202;2023-08-24T07:02:10;24.10;;;9.48;;
64174;SDS011;50469;50.438;-119.202;2023-08-24T07:04:38;30.83;;;11.25;;
64174;SDS011;50469;50.438;-119.202;2023-08-24T07:07:08;24.17;;;11.95;;
64174;SDS011;50469;50.438;-119.202;2023-08-24T07:09:37;25.02;;;11.65;;
64174;SDS011;50469;50.438;-119.202;2023-08-24T07:12:05;34.17;;;14.60;;
64174;SDS011;50469;50.438;-119.202;2023-08-24T07:14:34;51.03;;;28.13;;
64174;SDS011;50469;50.438;-119.202;2023-08-24T07:17:03;314.58;;;54.20;;
64174;SDS011;50469;50.438;-119.202;2023-08-24T07:19:31;1986.38;;;198.80;;
64174;SDS011;50469;50.438;-119.202;2023-08-24T07:21:59;99.10;;;15.55;;
64174;SDS011;50469;50.438;-119.202;2023-08-24T07:24:27;22.27;;;13.48;;
64174;SDS011;50469;50.438;-119.202;2023-08-24T07:27:11;171.43;;;38.57;;
64174;SDS011;50469;50.438;-119.202;2023-08-24T07:29:42;40.95;;;20.33;;
64174;SDS011;50469;50.438;-119.202;2023-08-24T07:32:10;36.78;;;19.52;;
64174;SDS011;50469;50.438;-119.202;2023-08-24T07:34:39;25.80;;;11.85;;
64174;SDS011;50469;50.438;-119.202;2023-08-24T07:37:07;19.02;;;9.80;;
64174;SDS011;50469;50.438;-119.202;2023-08-24T07:39:35;25.48;;;8.88;;
64174;SDS011;50469;50.438;-119.202;2023-08-24T07:42:05;27.13;;;11.63;;
64174;SDS011;50469;50.438;-119.202;2023-08-24T07:44:36;26.92;;;11.57;;
64174;SDS011;50469;50.438;-119.202;2023-08-24T07:47:04;23.02;;;8.88;;
64174;SDS011;50469;50.438;-119.202;2023-08-24T07:49:33;25.75;;;9.82;;
64174;SDS011;50469;50.438;-119.202;2023-08-24T07:52:01;28.05;;;11.00;;
64174;SDS011;50469;50.438;-119.202;2023-08-24T07:54:30;17.48;;;8.73;;
64174;SDS011;50469;50.438;-119.202;2023-08-24T07:56:58;30.85;;;10.20;;
64174;SDS011;50469;50.438;-119.202;2023-08-24T07:59:26;25.58;;;10.55;;
64174;SDS011;50469;50.438;-119.202;2023-08-24T08:01:56;20.92;;;10.48;;
64174;SDS011;50469;50.438;-119.202;2023-08-24T08:04:25;22.08;;;10.82;;
64174;SDS011;50469;50.438;-119.202;2023-08-24T08:06:53;27.65;;;11.13;;
64174;SDS011;50469;50.438;-119.202;2023-08-24T08:09:21;33.72;;;12.32;;
64174;SDS011;50469;50.438;-119.202;2023-08-24T08:11:49;634.40;;;246.57;;
64174;SDS011;50469;50.438;-119.202;2023-08-24T08:14:18;24.10;;;9.82;;
64174;SDS011;50469;50.438;-119.202;2023-08-24T08:16:46;19.00;;;8.98;;
64174;SDS011;50469;50.438;-119.202;2023-08-24T08:19:14;30.02;;;13.48;;
64174;SDS011;50469;50.438;-119.202;2023-08-24T08:21:42;25.40;;;12.27;;
64174;SDS011;50469;50.438;-119.202;2023-08-24T08:24:11;28.65;;;13.18;;
64174;SDS011;50469;50.438;-119.202;2023-08-24T08:26:50;22.05;;;10.40;;
64174;SDS011;50469;50.438;-119.202;2023-08-24T08:29:19;18.77;;;9.82;;
64174;SDS011;50469;50.438;-119.202;2023-08-24T08:31:47;27.20;;;10.98;;
64174;SDS011;50469;50.438;-119.202;2023-08-24T08:34:15;22.60;;;10.02;;
64174;SDS011;50469;50.438;-119.202;2023-08-24T08:36:43;65.75;;;58.92;;
64174;SDS011;50469;50.438;-119.202;2023-08-24T08:39:11;30.50;;;12.40;;
64174;SDS011;50469;50.438;-119.202;2023-08-24T08:41:43;26.98;;;10.98;;
64174;SDS011;50469;50.438;-119.202;2023-08-24T08:44:13;19.55;;;10.05;;
64174;SDS011;50469;50.438;-119.202;2023-08-24T08:46:42;17.08;;;8.48;;
64174;SDS011;50469;50.438;-119.202;2023-08-24T08:49:11;21.02;;;9.57;;
64174;SDS011;50469;50.438;-119.202;2023-08-24T08:51:41;24.67;;;10.30;;
64174;SDS011;50469;50.438;-119.202;2023-08-24T08:54:09;18.77;;;9.05;;
64174;SDS011;50469;50.438;-119.202;2023-08-24T08:56:38;23.90;;;9.35;;
64174;SDS011;50469;50.438;-119.202;2023-08-24T08:59:07;28.13;;;10.15;;
64174;SDS011;50469;50.438;-119.202;2023-08-24T09:01:39;27.08;;;11.13;;
64174;SDS011;50469;50.438;-119.202;2023-08-24T09:04:07;26.15;;;9.80;;
64174;SDS011;50469;50.438;-119.202;2023-08-24T09:06:36;20.77;;;9.48;;
64174;SDS011;50469;50.438;-119.202;2023-08-24T09:09:06;29.13;;;11.68;;
64174;SDS011;50469;50.438;-119.202;2023-08-24T09:11:35;22.40;;;10.18;;
64174;SDS011;50469;50.438;-119.202;2023-08-24T09:14:03;23.23;;;9.90;;
64174;SDS011;50469;50.438;-119.202;2023-08-24T09:16:31;17.23;;;9.35;;
64174;SDS011;50469;50.438;-119.202;2023-08-24T09:19:00;23.95;;;9.73;;
64174;SDS011;50469;50.438;-119.202;2023-08-24T09:21:36;20.88;;;9.38;;
64174;SDS011;50469;50.438;-119.202;2023-08-24T09:24:07;18.70;;;9.27;;
64174;SDS011;50469;50.438;-119.202;2023-08-24T09:26:36;17.35;;;8.80;;
64174;SDS011;50469;50.438;-119.202;2023-08-24T09:29:11;16.70;;;7.88;;
64174;SDS011;50469;50.438;-119.202;2023-08-24T09:31:43;21.50;;;8.95;;
64174;SDS011;50469;50.438;-119.202;2023-08-24T09:34:11;18.83;;;8.57;;
64174;SDS011;50469;50.438;-119.202;2023-08-24T09:36:40;26.92;;;9.30;;
64174;SDS011;50469;50.438;-119.202;2023-08-24T09:39:10;35.97;;;9.23;;
64174;SDS011;50469;50.438;-119.202;2023-08-24T09:44:11;22.00;;;9.02;;
64174;SDS011;50469;50.438;-119.202;2023-08-24T09:46:39;22.48;;;7.90;;
64174;SDS011;50469;50.438;-119.202;2023-08-24T09:49:09;22.95;;;8.57;;
64174;SDS011;50469;50.438;-119.202;2023-08-24T09:51:38;19.08;;;8.88;;
64174;SDS011;50469;50.438;-119.202;2023-08-24T09:54:09;1999.90;;;999.90;;
64174;SDS011;50469;50.438;-119.202;2023-08-24T09:56:40;1999.90;;;999.90;;
64174;SDS011;50469;50.438;-119.202;2023-08-24T09:59:12;1999.90;;;999.90;;
64174;SDS011;50469;50.438;-119.202;2023-08-24T10:01:45;1999.90;;;999.90;;
64174;SDS011;50469;50.438;-119.202;2023-08-24T10:04:17;1999.90;;;999.90;;
64174;SDS011;50469;50.438;-119.202;2023-08-24T10:06:51;1999.90;;;999.90;;
64174;SDS011;50469;50.438;-119.202;2023-08-24T10:09:25;246.90;;;164.75;;
64174;SDS011;50469;50.438;-119.202;2023-08-24T10:11:58;29.23;;;13.45;;
64174;SDS011;50469;50.438;-119.202;2023-08-24T10:14:50;24.05;;;12.60;;
64174;SDS011;50469;50.438;-119.202;2023-08-24T10:17:23;22.63;;;13.02;;
64174;SDS011;50469;50.438;-119.202;2023-08-24T10:19:53;29.92;;;13.77;;
64174;SDS011;50469;50.438;-119.202;2023-08-24T10:22:23;37.30;;;12.48;;
64174;SDS011;50469;50.438;-119.202;2023-08-24T10:24:52;26.15;;;12.52;;
64174;SDS011;50469;50.438;-119.202;2023-08-24T10:27:22;29.10;;;12.18;;
64174;SDS011;50469;50.438;-119.202;2023-08-24T10:29:50;29.85;;;15.20;;
64174;SDS011;50469;50.438;-119.202;2023-08-24T10:32:19;77.65;;;54.45;;
64174;SDS011;50469;50.438;-119.202;2023-08-24T10:34:50;41.67;;;15.82;;
64174;SDS011;50469;50.438;-119.202;2023-08-24T10:37:24;31.77;;;15.68;;
64174;SDS011;50469;50.438;-119.202;2023-08-24T10:39:54;903.13;;;158.45;;
64174;SDS011;50469;50.438;-119.202;2023-08-24T10:42:25;37.05;;;13.98;;
64174;SDS011;50469;50.438;-119.202;2023-08-24T10:44:54;27.98;;;14.00;;
64174;SDS011;50469;50.438;-119.202;2023-08-24T10:47:22;33.63;;;13.52;;
64174;SDS011;50469;50.438;-119.202;2023-08-24T10:54:53;23.70;;;13.90;;
64174;SDS011;50469;50.438;-119.202;2023-08-24T10:57:23;26.08;;;15.13;;
64174;SDS011;50469;50.438;-119.202;2023-08-24T11:00:08;29.92;;;15.80;;
64174;SDS011;50469;50.438;-119.202;2023-08-24T11:05:28;29.67;;;14.55;;
64174;SDS011;50469;50.438;-119.202;2023-08-24T11:07:59;24.88;;;14.27;;
64174;SDS011;50469;50.438;-119.202;2023-08-24T11:10:31;24.98;;;14.85;;
64174;SDS011;50469;50.438;-119.202;2023-08-24T11:15:39;29.20;;;16.30;;
64174;SDS011;50469;50.438;-119.202;2023-08-24T11:21:05;29.00;;;17.05;;
64174;SDS011;50469;50.438;-119.202;2023-08-24T11:23:34;27.98;;;17.08;;
64174;SDS011;50469;50.438;-119.202;2023-08-24T11:26:03;36.47;;;16.17;;
64174;SDS011;50469;50.438;-119.202;2023-08-24T11:28:31;34.78;;;12.13;;
64174;SDS011;50469;50.438;-119.202;2023-08-24T11:30:59;6.20;;;5.20;;
64174;SDS011;50469;50.438;-119.202;2023-08-24T11:33:28;2.30;;;2.10;;
64174;SDS011;50469;50.438;-119.202;2023-08-24T11:35:57;6.03;;;2.67;;
64174;SDS011;50469;50.438;-119.202;2023-08-24T11:38:36;403.48;;;102.65;;
64174;SDS011;50469;50.438;-119.202;2023-08-24T11:43:41;37.83;;;20.90;;
64174;SDS011;50469;50.438;-119.202;2023-08-24T11:46:10;27.08;;;16.30;;
64174;SDS011;50469;50.438;-119.202;2023-08-24T11:48:39;30.75;;;16.05;;
64174;SDS011;50469;50.438;-119.202;2023-08-24T11:51:10;62.28;;;54.92;;
64174;SDS011;50469;50.438;-119.202;2023-08-24T11:53:48;27.33;;;14.43;;
64174;SDS011;50469;50.438;-119.202;2023-08-24T11:56:17;28.25;;;18.02;;
64174;SDS011;50469;50.438;-119.202;2023-08-24T11:58:48;27.67;;;17.67;;
64174;SDS011;50469;50.438;-119.202;2023-08-24T12:01:17;34.85;;;16.65;;
64174;SDS011;50469;50.438;-119.202;2023-08-24T12:03:46;33.15;;;18.42;;
64174;SDS011;50469;50.438;-119.202;2023-08-24T12:06:15;27.98;;;19.75;;
64174;SDS011;50469;50.438;-119.202;2023-08-24T12:08:47;84.03;;;73.43;;
64174;SDS011;50469;50.438;-119.202;2023-08-24T12:11:16;20.98;;;14.85;;
64174;SDS011;50469;50.438;-119.202;2023-08-24T12:13:49;242.25;;;159.20;;
64174;SDS011;50469;50.438;-119.202;2023-08-24T12:16:18;57.95;;;42.95;;
64174;SDS011;50469;50.438;-119.202;2023-08-24T12:18:52;401.58;;;66.78;;
64174;SDS011;50469;50.438;-119.202;2023-08-24T12:21:24;1999.90;;;999.90;;
64174;SDS011;50469;50.438;-119.202;2023-08-24T12:23:59;1999.90;;;999.90;;
64174;SDS011;50469;50.438;-119.202;2023-08-24T12:26:29;923.25;;;101.68;;
64174;SDS011;50469;50.438;-119.202;2023-08-24T12:29:01;1461.45;;;834.78;;
64174;SDS011;50469;50.438;-119.202;2023-08-24T12:31:33;1660.18;;;282.40;;
64174;SDS011;50469;50.438;-119.202;2023-08-24T12:34:03;140.20;;;43.30;;
64174;SDS011;50469;50.438;-119.202;2023-08-24T12:36:36;363.17;;;80.72;;
64174;SDS011;50469;50.438;-119.202;2023-08-24T12:39:05;28.65;;;14.63;;
64174;SDS011;50469;50.438;-119.202;2023-08-24T12:41:36;27.95;;;17.27;;
64174;SDS011;50469;50.438;-119.202;2023-08-24T12:44:04;413.27;;;55.47;;
64174;SDS011;50469;50.438;-119.202;2023-08-24T12:46:38;33.47;;;15.95;;
64174;SDS011;50469;50.438;-119.202;2023-08-24T12:49:06;30.70;;;15.18;;
64174;SDS011;50469;50.438;-119.202;2023-08-24T12:51:35;427.25;;;54.80;;
64174;SDS011;50469;50.438;-119.202;2023-08-24T12:54:03;306.88;;;57.50;;
64174;SDS011;50469;50.438;-119.202;2023-08-24T12:56:34;154.50;;;66.10;;
64174;SDS011;50469;50.438;-119.202;2023-08-24T12:59:02;43.03;;;36.35;;
64174;SDS011;50469;50.438;-119.202;2023-08-24T13:01:30;33.47;;;16.67;;
64174;SDS011;50469;50.438;-119.202;2023-08-24T13:03:58;34.33;;;15.25;;
64174;SDS011;50469;50.438;-119.202;2023-08-24T13:06:26;25.27;;;14.88;;
64174;SDS011;50469;50.438;-119.202;2023-08-24T13:08:55;28.35;;;16.25;;
64174;SDS011;50469;50.438;-119.202;2023-08-24T13:11:23;32.70;;;17.85;;
64174;SDS011;50469;50.438;-119.202;2023-08-24T13:13:51;30.10;;;15.40;;
64174;SDS011;50469;50.438;-119.202;2023-08-24T13:16:22;28.63;;;16.60;;
64174;SDS011;50469;50.438;-119.202;2023-08-24T13:18:50;32.63;;;16.00;;
64174;SDS011;50469;50.438;-119.202;2023-08-24T13:21:19;27.80;;;15.80;;
64174;SDS011;50469;50.438;-119.202;2023-08-24T13:23:48;29.08;;;16.42;;
64174;SDS011;50469;50.438;-119.202;2023-08-24T13:26:17;30.52;;;15.98;;
64174;SDS011;50469;50.438;-119.202;2023-08-24T13:28:48;27.98;;;16.33;;
64174;SDS011;50469;50.438;-119.202;2023-08-24T13:31:17;27.92;;;14.73;;
64174;SDS011;50469;50.438;-119.202;2023-08-24T13:33:45;29.30;;;16.35;;
64174;SDS011;50469;50.438;-119.202;2023-08-24T13:36:13;30.20;;;15.75;;
64174;SDS011;50469;50.438;-119.202;2023-08-24T13:38:42;30.67;;;15.73;;
64174;SDS011;50469;50.438;-119.202;2023-08-24T13:41:11;37.22;;;19.42;;
64174;SDS011;50469;50.438;-119.202;2023-08-24T13:43:39;33.42;;;17.63;;
64174;SDS011;50469;50.438;-119.202;2023-08-24T13:46:07;28.23;;;15.80;;
64174;SDS011;50469;50.438;-119.202;2023-08-24T13:48:35;39.50;;;17.00;;
64174;SDS011;50469;50.438;-119.202;2023-08-24T13:51:04;36.03;;;16.70;;
64174;SDS011;50469;50.438;-119.202;2023-08-24T13:53:35;30.42;;;16.33;;
64174;SDS011;50469;50.438;-119.202;2023-08-24T13:56:04;34.10;;;20.02;;
64174;SDS011;50469;50.438;-119.202;2023-08-24T13:58:33;40.30;;;19.48;;
64174;SDS011;50469;50.438;-119.202;2023-08-24T14:01:01;30.45;;;17.05;;
64174;SDS011;50469;50.438;-119.202;2023-08-24T14:03:30;26.60;;;15.95;;
64174;SDS011;50469;50.438;-119.202;2023-08-24T14:05:58;32.80;;;17.08;;
64174;SDS011;50469;50.438;-119.202;2023-08-24T14:08:29;28.55;;;17.02;;
64174;SDS011;50469;50.438;-119.202;2023-08-24T14:10:57;28.17;;;16.95;;
64174;SDS011;50469;50.438;-119.202;2023-08-24T14:13:25;31.30;;;17.00;;
64174;SDS011;50469;50.438;-119.202;2023-08-24T14:15:54;30.67;;;16.27;;
64174;SDS011;50469;50.438;-119.202;2023-08-24T14:18:23;37.35;;;17.52;;
64174;SDS011;50469;50.438;-119.202;2023-08-24T14:20:52;32.42;;;17.00;;